sensor_id;sensor_type;location;lat;lon;timestamp;P1;durP1;ratioP1;P2;durP2;ratioP2
50683;SDS011;36654;45.042;38.994;2022-08-25T00:01:18;14.35;;;3.47;;
50683;SDS011;36654;45.042;38.994;2022-08-25T00:03:49;16.48;;;3.05;;
50683;SDS011;36654;45.042;38.994;2022-08-25T00:06:14;18.75;;;3.72;;
50683;SDS011;36654;45.042;38.994;2022-08-25T00:08:41;17.67;;;3.83;;
50683;SDS011;36654;45.042;38.994;2022-08-25T00:11:09;16.27;;;3.20;;
50683;SDS011;36654;45.042;38.994;2022-08-25T00:13:37;17.50;;;3.47;;
50683;SDS011;36654;45.042;38.994;2022-08-25T00:16:07;13.60;;;3.05;;
50683;SDS011;36654;45.042;38.994;2022-08-25T00:18:32;14.30;;;3.22;;
50683;SDS011;36654;45.042;38.994;2022-08-25T00:20:58;16.60;;;3.47;;
50683;SDS011;36654;45.042;38.994;2022-08-25T00:23:24;11.82;;;3.30;;
50683;SDS011;36654;45.042;38.994;2022-08-25T00:25:49;20.65;;;3.42;;
50683;SDS011;36654;45.042;38.994;2022-08-25T00:28:15;15.20;;;3.22;;
50683;SDS011;36654;45.042;38.994;2022-08-25T00:30:42;15.15;;;3.13;;
50683;SDS011;36654;45.042;38.994;2022-08-25T00:33:08;17.05;;;3.58;;
50683;SDS011;36654;45.042;38.994;2022-08-25T00:35:34;17.00;;;3.05;;
50683;SDS011;36654;45.042;38.994;2022-08-25T00:38:00;17.63;;;2.92;;
50683;SDS011;36654;45.042;38.994;2022-08-25T00:40:26;11.70;;;3.08;;
50683;SDS011;36654;45.042;38.994;2022-08-25T00:42:53;13.27;;;3.22;;
50683;SDS011;36654;45.042;38.994;2022-08-25T00:45:20;18.25;;;3.55;;
50683;SDS011;36654;45.042;38.994;2022-08-25T00:47:47;14.77;;;2.97;;
50683;SDS011;36654;45.042;38.994;2022-08-25T00:50:13;24.50;;;3.85;;
50683;SDS011;36654;45.042;38.994;2022-08-25T00:52:43;11.13;;;3.50;;
50683;SDS011;36654;45.042;38.994;2022-08-25T00:57:41;16.70;;;3.47;;
50683;SDS011;36654;45.042;38.994;2022-08-25T01:00:13;13.20;;;2.88;;
50683;SDS011;36654;45.042;38.994;2022-08-25T01:05:31;13.10;;;3.17;;
50683;SDS011;36654;45.042;38.994;2022-08-25T01:07:58;13.70;;;2.58;;
50683;SDS011;36654;45.042;38.994;2022-08-25T01:10:30;12.95;;;3.05;;
50683;SDS011;36654;45.042;38.994;2022-08-25T01:13:02;11.20;;;2.95;;
50683;SDS011;36654;45.042;38.994;2022-08-25T01:15:34;12.35;;;2.63;;
50683;SDS011;36654;45.042;38.994;2022-08-25T01:18:00;8.27;;;2.67;;
50683;SDS011;36654;45.042;38.994;2022-08-25T01:20:27;10.00;;;2.75;;
50683;SDS011;36654;45.042;38.994;2022-08-25T01:22:55;12.98;;;2.80;;
50683;SDS011;36654;45.042;38.994;2022-08-25T01:25:42;12.98;;;2.45;;
50683;SDS011;36654;45.042;38.994;2022-08-25T01:28:16;9.27;;;2.80;;
50683;SDS011;36654;45.042;38.994;2022-08-25T01:30:41;10.52;;;2.38;;
50683;SDS011;36654;45.042;38.994;2022-08-25T01:33:08;14.95;;;2.80;;
50683;SDS011;36654;45.042;38.994;2022-08-25T01:35:35;9.15;;;2.33;;
50683;SDS011;36654;45.042;38.994;2022-08-25T01:38:02;11.60;;;2.55;;
50683;SDS011;36654;45.042;38.994;2022-08-25T01:40:29;12.75;;;3.00;;
50683;SDS011;36654;45.042;38.994;2022-08-25T01:45:41;13.18;;;2.80;;
50683;SDS011;36654;45.042;38.994;2022-08-25T01:48:09;12.52;;;2.65;;
50683;SDS011;36654;45.042;38.994;2022-08-25T01:50:36;9.77;;;3.10;;
50683;SDS011;36654;45.042;38.994;2022-08-25T01:53:03;12.02;;;3.03;;
50683;SDS011;36654;45.042;38.994;2022-08-25T01:55:32;9.02;;;2.65;;
50683;SDS011;36654;45.042;38.994;2022-08-25T01:58:22;13.20;;;2.63;;
50683;SDS011;36654;45.042;38.994;2022-08-25T02:01:00;9.90;;;2.75;;
50683;SDS011;36654;45.042;38.994;2022-08-25T02:03:28;11.90;;;2.22;;
50683;SDS011;36654;45.042;38.994;2022-08-25T02:05:55;6.28;;;2.50;;
50683;SDS011;36654;45.042;38.994;2022-08-25T02:08:22;10.40;;;2.67;;
50683;SDS011;36654;45.042;38.994;2022-08-25T02:10:49;9.45;;;2.40;;
50683;SDS011;36654;45.042;38.994;2022-08-25T02:13:16;8.32;;;2.25;;
50683;SDS011;36654;45.042;38.994;2022-08-25T02:15:43;7.88;;;2.55;;
50683;SDS011;36654;45.042;38.994;2022-08-25T02:18:11;8.95;;;2.40;;
50683;SDS011;36654;45.042;38.994;2022-08-25T02:20:37;8.93;;;2.50;;
50683;SDS011;36654;45.042;38.994;2022-08-25T02:23:03;8.00;;;2.40;;
50683;SDS011;36654;45.042;38.994;2022-08-25T02:25:30;12.55;;;2.70;;
50683;SDS011;36654;45.042;38.994;2022-08-25T02:27:57;9.93;;;2.90;;
50683;SDS011;36654;45.042;38.994;2022-08-25T02:30:23;11.23;;;2.30;;
50683;SDS011;36654;45.042;38.994;2022-08-25T02:32:49;10.35;;;2.55;;
50683;SDS011;36654;45.042;38.994;2022-08-25T02:35:15;9.75;;;2.75;;
50683;SDS011;36654;45.042;38.994;2022-08-25T02:37:41;11.85;;;2.90;;
50683;SDS011;36654;45.042;38.994;2022-08-25T02:40:07;8.13;;;2.30;;
50683;SDS011;36654;45.042;38.994;2022-08-25T02:42:34;10.13;;;2.22;;
50683;SDS011;36654;45.042;38.994;2022-08-25T02:45:00;8.68;;;2.30;;
50683;SDS011;36654;45.042;38.994;2022-08-25T02:47:26;9.07;;;2.50;;
50683;SDS011;36654;45.042;38.994;2022-08-25T02:49:51;10.80;;;2.58;;
50683;SDS011;36654;45.042;38.994;2022-08-25T02:52:17;15.18;;;2.67;;
50683;SDS011;36654;45.042;38.994;2022-08-25T02:54:43;10.05;;;2.70;;
50683;SDS011;36654;45.042;38.994;2022-08-25T02:57:09;9.73;;;2.42;;
50683;SDS011;36654;45.042;38.994;2022-08-25T02:59:36;10.73;;;2.58;;
50683;SDS011;36654;45.042;38.994;2022-08-25T03:02:03;8.43;;;2.55;;
50683;SDS011;36654;45.042;38.994;2022-08-25T03:04:30;8.05;;;2.40;;
50683;SDS011;36654;45.042;38.994;2022-08-25T03:06:56;8.20;;;2.03;;
50683;SDS011;36654;45.042;38.994;2022-08-25T03:09:22;9.82;;;2.60;;
50683;SDS011;36654;45.042;38.994;2022-08-25T03:11:48;7.25;;;2.50;;
50683;SDS011;36654;45.042;38.994;2022-08-25T03:14:14;8.15;;;2.38;;
50683;SDS011;36654;45.042;38.994;2022-08-25T03:16:39;10.90;;;2.97;;
50683;SDS011;36654;45.042;38.994;2022-08-25T03:19:06;9.85;;;2.00;;
50683;SDS011;36654;45.042;38.994;2022-08-25T03:21:32;13.32;;;2.75;;
50683;SDS011;36654;45.042;38.994;2022-08-25T03:23:58;8.45;;;2.30;;
50683;SDS011;36654;45.042;38.994;2022-08-25T03:26:24;12.65;;;2.72;;
50683;SDS011;36654;45.042;38.994;2022-08-25T03:29:08;12.27;;;2.55;;
50683;SDS011;36654;45.042;38.994;2022-08-25T03:31:35;12.98;;;2.50;;
50683;SDS011;36654;45.042;38.994;2022-08-25T03:34:02;8.13;;;2.50;;
50683;SDS011;36654;45.042;38.994;2022-08-25T03:36:28;8.98;;;2.20;;
50683;SDS011;36654;45.042;38.994;2022-08-25T03:38:54;8.65;;;2.30;;
50683;SDS011;36654;45.042;38.994;2022-08-25T03:41:21;10.82;;;2.60;;
50683;SDS011;36654;45.042;38.994;2022-08-25T03:43:50;8.57;;;2.40;;
50683;SDS011;36654;45.042;38.994;2022-08-25T03:46:19;9.75;;;2.70;;
50683;SDS011;36654;45.042;38.994;2022-08-25T03:48:47;9.48;;;2.47;;
50683;SDS011;36654;45.042;38.994;2022-08-25T03:51:27;10.23;;;2.35;;
50683;SDS011;36654;45.042;38.994;2022-08-25T03:53:55;8.85;;;2.38;;
50683;SDS011;36654;45.042;38.994;2022-08-25T03:56:23;8.68;;;2.25;;
50683;SDS011;36654;45.042;38.994;2022-08-25T03:58:49;10.63;;;2.28;;
50683;SDS011;36654;45.042;38.994;2022-08-25T04:01:15;8.73;;;2.10;;
50683;SDS011;36654;45.042;38.994;2022-08-25T04:03:41;11.00;;;2.58;;
50683;SDS011;36654;45.042;38.994;2022-08-25T04:06:08;9.60;;;2.40;;
50683;SDS011;36654;45.042;38.994;2022-08-25T04:08:34;9.55;;;2.70;;
50683;SDS011;36654;45.042;38.994;2022-08-25T04:11:04;7.43;;;2.40;;
50683;SDS011;36654;45.042;38.994;2022-08-25T04:13:31;8.27;;;2.60;;
50683;SDS011;36654;45.042;38.994;2022-08-25T04:15:57;12.90;;;2.58;;
50683;SDS011;36654;45.042;38.994;2022-08-25T04:18:22;9.90;;;2.17;;
50683;SDS011;36654;45.042;38.994;2022-08-25T04:20:48;8.73;;;2.15;;
50683;SDS011;36654;45.042;38.994;2022-08-25T04:23:14;9.27;;;2.70;;
50683;SDS011;36654;45.042;38.994;2022-08-25T04:25:40;12.85;;;2.67;;
50683;SDS011;36654;45.042;38.994;2022-08-25T04:28:06;9.60;;;2.80;;
50683;SDS011;36654;45.042;38.994;2022-08-25T04:30:33;9.38;;;2.40;;
50683;SDS011;36654;45.042;38.994;2022-08-25T04:32:59;10.65;;;2.35;;
50683;SDS011;36654;45.042;38.994;2022-08-25T04:35:25;8.55;;;2.15;;
50683;SDS011;36654;45.042;38.994;2022-08-25T04:37:51;6.90;;;2.60;;
50683;SDS011;36654;45.042;38.994;2022-08-25T04:40:16;7.55;;;2.50;;
50683;SDS011;36654;45.042;38.994;2022-08-25T04:42:42;7.53;;;1.90;;
50683;SDS011;36654;45.042;38.994;2022-08-25T04:45:09;7.55;;;2.33;;
50683;SDS011;36654;45.042;38.994;2022-08-25T04:47:36;10.93;;;2.63;;
50683;SDS011;36654;45.042;38.994;2022-08-25T04:50:03;11.85;;;2.22;;
50683;SDS011;36654;45.042;38.994;2022-08-25T04:52:30;8.35;;;2.35;;
50683;SDS011;36654;45.042;38.994;2022-08-25T04:54:56;8.27;;;2.20;;
50683;SDS011;36654;45.042;38.994;2022-08-25T04:57:22;10.48;;;2.10;;
50683;SDS011;36654;45.042;38.994;2022-08-25T04:59:48;9.57;;;2.30;;
50683;SDS011;36654;45.042;38.994;2022-08-25T05:02:13;10.60;;;2.40;;
50683;SDS011;36654;45.042;38.994;2022-08-25T05:04:39;8.27;;;2.15;;
50683;SDS011;36654;45.042;38.994;2022-08-25T05:07:05;10.98;;;2.38;;
50683;SDS011;36654;45.042;38.994;2022-08-25T05:09:31;8.57;;;2.55;;
50683;SDS011;36654;45.042;38.994;2022-08-25T05:11:57;7.82;;;2.00;;
50683;SDS011;36654;45.042;38.994;2022-08-25T05:14:23;8.43;;;2.30;;
50683;SDS011;36654;45.042;38.994;2022-08-25T05:16:49;8.93;;;1.90;;
50683;SDS011;36654;45.042;38.994;2022-08-25T05:19:15;5.22;;;2.10;;
50683;SDS011;36654;45.042;38.994;2022-08-25T05:21:40;9.27;;;2.50;;
50683;SDS011;36654;45.042;38.994;2022-08-25T05:24:06;14.27;;;3.00;;
50683;SDS011;36654;45.042;38.994;2022-08-25T05:26:33;6.50;;;2.35;;
50683;SDS011;36654;45.042;38.994;2022-08-25T05:29:01;11.57;;;2.67;;
50683;SDS011;36654;45.042;38.994;2022-08-25T05:31:29;11.25;;;2.70;;
50683;SDS011;36654;45.042;38.994;2022-08-25T05:33:55;10.93;;;2.88;;
50683;SDS011;36654;45.042;38.994;2022-08-25T05:36:22;8.55;;;2.33;;
50683;SDS011;36654;45.042;38.994;2022-08-25T05:38:50;9.15;;;2.65;;
50683;SDS011;36654;45.042;38.994;2022-08-25T05:41:18;12.30;;;2.63;;
50683;SDS011;36654;45.042;38.994;2022-08-25T05:43:46;10.02;;;2.78;;
50683;SDS011;36654;45.042;38.994;2022-08-25T05:46:13;9.93;;;2.40;;
50683;SDS011;36654;45.042;38.994;2022-08-25T05:48:40;11.70;;;2.60;;
50683;SDS011;36654;45.042;38.994;2022-08-25T05:51:07;9.80;;;2.45;;
50683;SDS011;36654;45.042;38.994;2022-08-25T05:53:37;9.60;;;2.58;;
50683;SDS011;36654;45.042;38.994;2022-08-25T05:56:05;11.55;;;2.67;;
50683;SDS011;36654;45.042;38.994;2022-08-25T05:58:31;12.18;;;2.60;;
50683;SDS011;36654;45.042;38.994;2022-08-25T06:00:58;11.55;;;2.67;;
50683;SDS011;36654;45.042;38.994;2022-08-25T06:03:43;7.75;;;2.53;;
50683;SDS011;36654;45.042;38.994;2022-08-25T06:06:09;10.85;;;2.45;;
50683;SDS011;36654;45.042;38.994;2022-08-25T06:08:35;7.57;;;2.17;;
50683;SDS011;36654;45.042;38.994;2022-08-25T06:11:00;13.27;;;2.75;;
50683;SDS011;36654;45.042;38.994;2022-08-25T06:13:26;14.07;;;2.67;;
50683;SDS011;36654;45.042;38.994;2022-08-25T06:15:56;10.13;;;3.15;;
50683;SDS011;36654;45.042;38.994;2022-08-25T06:18:22;11.75;;;2.70;;
50683;SDS011;36654;45.042;38.994;2022-08-25T06:20:47;8.52;;;3.10;;
50683;SDS011;36654;45.042;38.994;2022-08-25T06:23:13;13.45;;;3.00;;
50683;SDS011;36654;45.042;38.994;2022-08-25T06:25:40;10.85;;;2.53;;
50683;SDS011;36654;45.042;38.994;2022-08-25T06:28:05;9.05;;;2.55;;
50683;SDS011;36654;45.042;38.994;2022-08-25T06:30:31;10.75;;;2.80;;
50683;SDS011;36654;45.042;38.994;2022-08-25T06:32:57;8.60;;;2.60;;
50683;SDS011;36654;45.042;38.994;2022-08-25T06:35:22;6.57;;;2.03;;
50683;SDS011;36654;45.042;38.994;2022-08-25T06:37:48;13.73;;;2.88;;
50683;SDS011;36654;45.042;38.994;2022-08-25T06:40:14;11.35;;;2.80;;
50683;SDS011;36654;45.042;38.994;2022-08-25T06:42:40;11.20;;;2.92;;
50683;SDS011;36654;45.042;38.994;2022-08-25T06:45:07;15.85;;;3.10;;
50683;SDS011;36654;45.042;38.994;2022-08-25T06:47:33;11.60;;;2.88;;
50683;SDS011;36654;45.042;38.994;2022-08-25T06:49:59;9.35;;;2.75;;
50683;SDS011;36654;45.042;38.994;2022-08-25T06:52:25;12.40;;;2.90;;
50683;SDS011;36654;45.042;38.994;2022-08-25T06:54:51;8.77;;;2.60;;
50683;SDS011;36654;45.042;38.994;2022-08-25T06:57:17;10.02;;;2.67;;
50683;SDS011;36654;45.042;38.994;2022-08-25T08:07:28;11.38;;;3.08;;
50683;SDS011;36654;45.042;38.994;2022-08-25T08:09:56;10.57;;;3.20;;
50683;SDS011;36654;45.042;38.994;2022-08-25T08:12:22;12.52;;;3.22;;
50683;SDS011;36654;45.042;38.994;2022-08-25T08:14:49;14.77;;;3.15;;
50683;SDS011;36654;45.042;38.994;2022-08-25T08:17:16;14.23;;;3.05;;
50683;SDS011;36654;45.042;38.994;2022-08-25T08:19:42;12.30;;;3.30;;
50683;SDS011;36654;45.042;38.994;2022-08-25T08:22:08;13.60;;;3.08;;
50683;SDS011;36654;45.042;38.994;2022-08-25T08:24:39;12.57;;;3.30;;
50683;SDS011;36654;45.042;38.994;2022-08-25T08:27:05;12.43;;;2.83;;
50683;SDS011;36654;45.042;38.994;2022-08-25T08:29:33;13.38;;;3.20;;
50683;SDS011;36654;45.042;38.994;2022-08-25T08:32:00;12.68;;;3.10;;
50683;SDS011;36654;45.042;38.994;2022-08-25T08:34:27;8.90;;;2.95;;
50683;SDS011;36654;45.042;38.994;2022-08-25T08:36:54;15.27;;;2.83;;
50683;SDS011;36654;45.042;38.994;2022-08-25T08:39:20;11.85;;;2.83;;
50683;SDS011;36654;45.042;38.994;2022-08-25T08:53:08;10.90;;;3.25;;
50683;SDS011;36654;45.042;38.994;2022-08-25T08:58:31;10.20;;;3.00;;
50683;SDS011;36654;45.042;38.994;2022-08-25T09:01:00;7.97;;;2.40;;
50683;SDS011;36654;45.042;38.994;2022-08-25T09:03:36;9.25;;;2.97;;
50683;SDS011;36654;45.042;38.994;2022-08-25T09:06:06;8.80;;;2.90;;
50683;SDS011;36654;45.042;38.994;2022-08-25T09:08:37;12.35;;;3.10;;
50683;SDS011;36654;45.042;38.994;2022-08-25T09:16:53;12.93;;;3.13;;
50683;SDS011;36654;45.042;38.994;2022-08-25T09:22:22;11.32;;;2.95;;
50683;SDS011;36654;45.042;38.994;2022-08-25T09:28:08;11.20;;;3.00;;
50683;SDS011;36654;45.042;38.994;2022-08-25T09:30:44;12.40;;;3.03;;
50683;SDS011;36654;45.042;38.994;2022-08-25T09:33:23;11.10;;;3.22;;
50683;SDS011;36654;45.042;38.994;2022-08-25T09:35:51;11.95;;;3.08;;
50683;SDS011;36654;45.042;38.994;2022-08-25T09:38:18;13.45;;;3.28;;
50683;SDS011;36654;45.042;38.994;2022-08-25T09:40:46;11.68;;;3.13;;
50683;SDS011;36654;45.042;38.994;2022-08-25T09:43:22;13.05;;;3.47;;
50683;SDS011;36654;45.042;38.994;2022-08-25T09:45:57;13.27;;;3.25;;
50683;SDS011;36654;45.042;38.994;2022-08-25T09:48:42;8.82;;;2.75;;
50683;SDS011;36654;45.042;38.994;2022-08-25T09:51:22;11.35;;;2.95;;
50683;SDS011;36654;45.042;38.994;2022-08-25T09:53:59;10.82;;;2.95;;
50683;SDS011;36654;45.042;38.994;2022-08-25T09:56:31;15.60;;;3.25;;
50683;SDS011;36654;45.042;38.994;2022-08-25T10:01:48;14.82;;;2.78;;
50683;SDS011;36654;45.042;38.994;2022-08-25T10:04:14;10.80;;;2.90;;
50683;SDS011;36654;45.042;38.994;2022-08-25T10:06:49;12.50;;;2.92;;
50683;SDS011;36654;45.042;38.994;2022-08-25T10:09:32;13.68;;;3.25;;
50683;SDS011;36654;45.042;38.994;2022-08-25T10:12:13;15.48;;;3.30;;
50683;SDS011;36654;45.042;38.994;2022-08-25T10:14:42;9.48;;;3.08;;
50683;SDS011;36654;45.042;38.994;2022-08-25T10:17:18;11.43;;;3.25;;
50683;SDS011;36654;45.042;38.994;2022-08-25T10:22:33;17.10;;;3.33;;
50683;SDS011;36654;45.042;38.994;2022-08-25T10:25:00;13.55;;;3.15;;
50683;SDS011;36654;45.042;38.994;2022-08-25T10:27:30;12.15;;;2.90;;
50683;SDS011;36654;45.042;38.994;2022-08-25T10:30:16;11.65;;;2.67;;
50683;SDS011;36654;45.042;38.994;2022-08-25T10:33:05;11.10;;;3.08;;
50683;SDS011;36654;45.042;38.994;2022-08-25T10:54:43;17.50;;;3.70;;
50683;SDS011;36654;45.042;38.994;2022-08-25T10:57:35;10.80;;;3.22;;
50683;SDS011;36654;45.042;38.994;2022-08-25T11:00:19;11.03;;;3.97;;
50683;SDS011;36654;45.042;38.994;2022-08-25T11:08:13;10.65;;;3.17;;
50683;SDS011;36654;45.042;38.994;2022-08-25T11:10:45;14.57;;;3.85;;
50683;SDS011;36654;45.042;38.994;2022-08-25T11:13:21;11.02;;;3.10;;
50683;SDS011;36654;45.042;38.994;2022-08-25T11:15:54;9.98;;;3.83;;
50683;SDS011;36654;45.042;38.994;2022-08-25T11:18:24;11.25;;;3.25;;
50683;SDS011;36654;45.042;38.994;2022-08-25T11:23:26;10.63;;;3.00;;
50683;SDS011;36654;45.042;38.994;2022-08-25T11:25:59;12.75;;;3.33;;
50683;SDS011;36654;45.042;38.994;2022-08-25T11:28:34;9.57;;;2.47;;
50683;SDS011;36654;45.042;38.994;2022-08-25T11:31:07;10.40;;;3.17;;
50683;SDS011;36654;45.042;38.994;2022-08-25T11:33:34;16.58;;;3.20;;
50683;SDS011;36654;45.042;38.994;2022-08-25T11:38:45;18.58;;;5.13;;
50683;SDS011;36654;45.042;38.994;2022-08-25T11:41:38;14.75;;;3.35;;
50683;SDS011;36654;45.042;38.994;2022-08-25T11:47:33;11.98;;;3.00;;
50683;SDS011;36654;45.042;38.994;2022-08-25T11:52:51;15.30;;;4.10;;
50683;SDS011;36654;45.042;38.994;2022-08-25T11:55:21;11.50;;;3.83;;
50683;SDS011;36654;45.042;38.994;2022-08-25T13:29:58;15.88;;;3.17;;
50683;SDS011;36654;45.042;38.994;2022-08-25T13:32:28;29.00;;;4.25;;
50683;SDS011;36654;45.042;38.994;2022-08-25T13:35:17;14.23;;;3.63;;
50683;SDS011;36654;45.042;38.994;2022-08-25T13:37:46;26.00;;;5.07;;
50683;SDS011;36654;45.042;38.994;2022-08-25T13:40:24;19.00;;;4.28;;
50683;SDS011;36654;45.042;38.994;2022-08-25T13:43:06;27.50;;;4.20;;
50683;SDS011;36654;45.042;38.994;2022-08-25T13:45:39;23.50;;;4.90;;
50683;SDS011;36654;45.042;38.994;2022-08-25T13:48:07;27.13;;;4.53;;
50683;SDS011;36654;45.042;38.994;2022-08-25T13:50:38;15.63;;;3.90;;
50683;SDS011;36654;45.042;38.994;2022-08-25T13:53:13;27.80;;;5.30;;
50683;SDS011;36654;45.042;38.994;2022-08-25T13:55:58;32.30;;;5.30;;
50683;SDS011;36654;45.042;38.994;2022-08-25T13:58:27;33.05;;;5.45;;
50683;SDS011;36654;45.042;38.994;2022-08-25T14:01:06;23.15;;;5.00;;
50683;SDS011;36654;45.042;38.994;2022-08-25T14:03:53;30.35;;;5.55;;
50683;SDS011;36654;45.042;38.994;2022-08-25T14:14:01;34.05;;;5.70;;
50683;SDS011;36654;45.042;38.994;2022-08-25T14:16:58;29.73;;;6.15;;
50683;SDS011;36654;45.042;38.994;2022-08-25T14:19:27;21.48;;;5.38;;
50683;SDS011;36654;45.042;38.994;2022-08-25T14:21:54;36.75;;;6.20;;
50683;SDS011;36654;45.042;38.994;2022-08-25T14:24:23;36.17;;;7.10;;
50683;SDS011;36654;45.042;38.994;2022-08-25T14:26:51;37.28;;;6.22;;
50683;SDS011;36654;45.042;38.994;2022-08-25T14:29:18;28.33;;;6.03;;
50683;SDS011;36654;45.042;38.994;2022-08-25T14:31:43;30.92;;;6.20;;
50683;SDS011;36654;45.042;38.994;2022-08-25T14:36:41;35.38;;;6.55;;
50683;SDS011;36654;45.042;38.994;2022-08-25T14:39:09;33.38;;;6.07;;
50683;SDS011;36654;45.042;38.994;2022-08-25T14:41:36;32.47;;;6.57;;
50683;SDS011;36654;45.042;38.994;2022-08-25T14:44:05;36.15;;;6.55;;
50683;SDS011;36654;45.042;38.994;2022-08-25T15:07:37;28.98;;;5.20;;
50683;SDS011;36654;45.042;38.994;2022-08-25T15:10:22;27.17;;;4.72;;
50683;SDS011;36654;45.042;38.994;2022-08-25T15:12:48;30.92;;;5.60;;
50683;SDS011;36654;45.042;38.994;2022-08-25T15:15:14;36.47;;;6.63;;
50683;SDS011;36654;45.042;38.994;2022-08-25T15:17:41;32.03;;;5.13;;
50683;SDS011;36654;45.042;38.994;2022-08-25T15:20:09;40.25;;;6.35;;
50683;SDS011;36654;45.042;38.994;2022-08-25T15:22:35;28.40;;;5.55;;
50683;SDS011;36654;45.042;38.994;2022-08-25T15:25:01;34.55;;;7.32;;
50683;SDS011;36654;45.042;38.994;2022-08-25T15:27:27;38.03;;;5.55;;
50683;SDS011;36654;45.042;38.994;2022-08-25T15:29:53;39.03;;;6.05;;
50683;SDS011;36654;45.042;38.994;2022-08-25T15:32:19;25.30;;;5.25;;
50683;SDS011;36654;45.042;38.994;2022-08-25T15:34:46;29.25;;;5.32;;
50683;SDS011;36654;45.042;38.994;2022-08-25T15:37:13;32.30;;;5.03;;
50683;SDS011;36654;45.042;38.994;2022-08-25T15:39:40;31.67;;;5.43;;
50683;SDS011;36654;45.042;38.994;2022-08-25T15:42:08;38.20;;;5.70;;
50683;SDS011;36654;45.042;38.994;2022-08-25T15:44:36;28.02;;;6.05;;
50683;SDS011;36654;45.042;38.994;2022-08-25T15:47:03;28.65;;;5.78;;
50683;SDS011;36654;45.042;38.994;2022-08-25T15:49:31;36.75;;;7.40;;
50683;SDS011;36654;45.042;38.994;2022-08-25T15:51:56;37.90;;;6.07;;
50683;SDS011;36654;45.042;38.994;2022-08-25T15:54:22;35.35;;;6.50;;
50683;SDS011;36654;45.042;38.994;2022-08-25T15:56:49;34.75;;;6.18;;
50683;SDS011;36654;45.042;38.994;2022-08-25T15:59:17;30.85;;;6.65;;
50683;SDS011;36654;45.042;38.994;2022-08-25T16:01:43;30.08;;;5.60;;
50683;SDS011;36654;45.042;38.994;2022-08-25T16:04:09;35.60;;;6.18;;
50683;SDS011;36654;45.042;38.994;2022-08-25T16:06:36;46.88;;;7.25;;
50683;SDS011;36654;45.042;38.994;2022-08-25T16:09:02;39.42;;;7.85;;
50683;SDS011;36654;45.042;38.994;2022-08-25T16:11:29;51.22;;;6.88;;
50683;SDS011;36654;45.042;38.994;2022-08-25T16:13:56;34.95;;;6.07;;
50683;SDS011;36654;45.042;38.994;2022-08-25T16:16:23;39.47;;;6.78;;
50683;SDS011;36654;45.042;38.994;2022-08-25T16:18:51;43.83;;;7.95;;
50683;SDS011;36654;45.042;38.994;2022-08-25T16:21:18;44.42;;;8.10;;
50683;SDS011;36654;45.042;38.994;2022-08-25T16:23:48;43.80;;;6.57;;
50683;SDS011;36654;45.042;38.994;2022-08-25T16:26:13;39.58;;;6.88;;
50683;SDS011;36654;45.042;38.994;2022-08-25T16:28:40;46.95;;;6.85;;
50683;SDS011;36654;45.042;38.994;2022-08-25T16:31:10;39.58;;;6.55;;
50683;SDS011;36654;45.042;38.994;2022-08-25T16:33:38;45.90;;;7.57;;
50683;SDS011;36654;45.042;38.994;2022-08-25T16:36:08;41.65;;;6.95;;
50683;SDS011;36654;45.042;38.994;2022-08-25T16:38:34;37.42;;;7.43;;
50683;SDS011;36654;45.042;38.994;2022-08-25T16:41:04;39.55;;;6.72;;
50683;SDS011;36654;45.042;38.994;2022-08-25T16:43:30;45.10;;;7.93;;
50683;SDS011;36654;45.042;38.994;2022-08-25T16:46:00;38.83;;;6.30;;
50683;SDS011;36654;45.042;38.994;2022-08-25T16:48:27;40.85;;;7.63;;
50683;SDS011;36654;45.042;38.994;2022-08-25T16:50:54;43.05;;;8.10;;
50683;SDS011;36654;45.042;38.994;2022-08-25T16:53:20;42.83;;;7.65;;
50683;SDS011;36654;45.042;38.994;2022-08-25T16:56:05;43.80;;;7.88;;
50683;SDS011;36654;45.042;38.994;2022-08-25T16:58:31;39.85;;;8.18;;
50683;SDS011;36654;45.042;38.994;2022-08-25T17:01:07;51.25;;;8.88;;
50683;SDS011;36654;45.042;38.994;2022-08-25T17:03:37;56.97;;;8.27;;
50683;SDS011;36654;45.042;38.994;2022-08-25T17:06:04;34.45;;;7.43;;
50683;SDS011;36654;45.042;38.994;2022-08-25T17:08:31;47.60;;;8.02;;
50683;SDS011;36654;45.042;38.994;2022-08-25T17:11:18;49.97;;;8.32;;
50683;SDS011;36654;45.042;38.994;2022-08-25T17:13:47;35.97;;;6.95;;
50683;SDS011;36654;45.042;38.994;2022-08-25T17:16:15;49.13;;;8.88;;
50683;SDS011;36654;45.042;38.994;2022-08-25T17:18:41;44.13;;;7.80;;
50683;SDS011;36654;45.042;38.994;2022-08-25T17:21:12;34.67;;;7.30;;
50683;SDS011;36654;45.042;38.994;2022-08-25T17:23:39;43.03;;;7.57;;
50683;SDS011;36654;45.042;38.994;2022-08-25T17:26:07;43.35;;;7.82;;
50683;SDS011;36654;45.042;38.994;2022-08-25T17:28:38;40.60;;;7.45;;
50683;SDS011;36654;45.042;38.994;2022-08-25T17:31:05;38.38;;;8.70;;
50683;SDS011;36654;45.042;38.994;2022-08-25T17:33:32;35.03;;;7.47;;
50683;SDS011;36654;45.042;38.994;2022-08-25T17:35:58;46.60;;;7.88;;
50683;SDS011;36654;45.042;38.994;2022-08-25T17:38:26;40.35;;;7.60;;
50683;SDS011;36654;45.042;38.994;2022-08-25T17:40:53;55.17;;;8.50;;
50683;SDS011;36654;45.042;38.994;2022-08-25T17:43:24;42.63;;;6.57;;
50683;SDS011;36654;45.042;38.994;2022-08-25T17:45:51;47.28;;;7.95;;
50683;SDS011;36654;45.042;38.994;2022-08-25T17:48:18;39.53;;;7.40;;
50683;SDS011;36654;45.042;38.994;2022-08-25T17:50:44;44.13;;;7.00;;
50683;SDS011;36654;45.042;38.994;2022-08-25T17:53:11;34.28;;;6.45;;
50683;SDS011;36654;45.042;38.994;2022-08-25T17:55:38;49.92;;;8.25;;
50683;SDS011;36654;45.042;38.994;2022-08-25T17:58:05;37.50;;;7.65;;
50683;SDS011;36654;45.042;38.994;2022-08-25T18:00:31;52.30;;;7.93;;
50683;SDS011;36654;45.042;38.994;2022-08-25T18:02:58;48.90;;;8.10;;
50683;SDS011;36654;45.042;38.994;2022-08-25T18:05:24;45.80;;;8.00;;
50683;SDS011;36654;45.042;38.994;2022-08-25T18:07:51;46.72;;;8.63;;
50683;SDS011;36654;45.042;38.994;2022-08-25T18:10:18;47.25;;;8.65;;
50683;SDS011;36654;45.042;38.994;2022-08-25T18:12:44;40.63;;;7.72;;
50683;SDS011;36654;45.042;38.994;2022-08-25T18:15:10;46.25;;;8.90;;
50683;SDS011;36654;45.042;38.994;2022-08-25T18:17:37;52.45;;;9.15;;
50683;SDS011;36654;45.042;38.994;2022-08-25T18:20:04;71.57;;;9.60;;
50683;SDS011;36654;45.042;38.994;2022-08-25T18:22:32;42.90;;;7.88;;
50683;SDS011;36654;45.042;38.994;2022-08-25T18:25:00;38.20;;;8.00;;
50683;SDS011;36654;45.042;38.994;2022-08-25T18:27:27;54.35;;;8.77;;
50683;SDS011;36654;45.042;38.994;2022-08-25T18:29:53;46.60;;;8.45;;
50683;SDS011;36654;45.042;38.994;2022-08-25T18:32:19;45.92;;;8.65;;
50683;SDS011;36654;45.042;38.994;2022-08-25T18:34:45;48.33;;;8.90;;
50683;SDS011;36654;45.042;38.994;2022-08-25T18:37:11;60.33;;;9.98;;
50683;SDS011;36654;45.042;38.994;2022-08-25T18:39:55;52.40;;;9.83;;
50683;SDS011;36654;45.042;38.994;2022-08-25T18:42:39;52.10;;;8.93;;
50683;SDS011;36654;45.042;38.994;2022-08-25T18:45:05;43.13;;;8.13;;
50683;SDS011;36654;45.042;38.994;2022-08-25T18:47:31;42.85;;;7.97;;
50683;SDS011;36654;45.042;38.994;2022-08-25T18:49:57;52.10;;;8.30;;
50683;SDS011;36654;45.042;38.994;2022-08-25T18:52:24;47.42;;;8.60;;
50683;SDS011;36654;45.042;38.994;2022-08-25T18:54:50;50.83;;;9.73;;
50683;SDS011;36654;45.042;38.994;2022-08-25T18:57:16;50.65;;;8.68;;
50683;SDS011;36654;45.042;38.994;2022-08-25T18:59:42;47.92;;;8.13;;